ADDS METAR Data INFO
IDs: Format: Raw Decoded Include TAF

Data at: 0042 UTC 23 Oct 2017

KCQM 230036Z AUTO 16005KT 10SM CLR 10/M01 A2981 RMK AO2
KCQM 230016Z AUTO 16004KT 10SM CLR 11/M01 A2982 RMK AO2
KCQM 222355Z AUTO 16004KT 10SM CLR 11/M01 A2982 RMK AO2
KCQM 222336Z AUTO 17004KT 10SM CLR 11/M01 A2982 RMK AO2
KCQM 222315Z AUTO 19003KT 10SM CLR 12/M01 A2981 RMK AO2
KCQM 222255Z AUTO 21004KT 10SM CLR 12/M01 A2981 RMK AO2
KCQM 222236Z AUTO 21007KT 10SM CLR 13/M02 A2981 RMK AO2
KCQM 222216Z AUTO 23005G17KT 10SM CLR 14/M02 A2981 RMK AO2
KCQM 222155Z AUTO 24009G14KT 10SM CLR 14/M02 A2981 RMK AO2
KCQM 222136Z AUTO 24009G16KT 10SM CLR 14/M02 A2981 RMK AO2
KCQM 222115Z AUTO 23010KT 10SM CLR 14/M02 A2981 RMK AO2
KCQM 222055Z AUTO 23014G20KT 10SM CLR 14/M02 A2981 RMK AO2
KCQM 222036Z AUTO 24010G16KT 10SM CLR 14/M02 A2981 RMK AO2
KCQM 222015Z AUTO 26013G20KT 10SM CLR 14/M02 A2981 RMK AO2
KCQM 221956Z AUTO 27016G22KT 10SM CLR 14/M03 A2981 RMK AO2
KCQM 221936Z AUTO 23013G19KT 10SM CLR 14/M01 A2981 RMK AO2
KCQM 221915Z AUTO 26013G19KT 10SM CLR 14/M01 A2981 RMK AO2
KCQM 221856Z AUTO 24011G18KT 10SM CLR 14/00 A2982 RMK AO2
KCQM 221836Z AUTO 24011G19KT 10SM CLR 13/01 A2982 RMK AO2
KCQM 221815Z AUTO 24012G16KT 10SM CLR 13/02 A2982 RMK AO2
KCQM 221756Z AUTO 25011G21KT 10SM CLR 13/02 A2983 RMK AO2
KCQM 221736Z AUTO 26012G18KT 10SM CLR 13/02 A2983 RMK AO2
KCQM 221715Z AUTO 24011G18KT 10SM CLR 12/03 A2983 RMK AO2
KCQM 221656Z AUTO 24011G20KT 10SM CLR 12/03 A2983 RMK AO2
KCQM 221636Z AUTO 24008KT 10SM CLR 11/04 A2983 RMK AO2
KCQM 221615Z AUTO 22010G15KT 10SM CLR 09/04 A2983 RMK AO2
KCQM 221556Z AUTO 22009G14KT 191V251 10SM CLR 08/04 A2983 RMK AO2
KCQM 221536Z AUTO 22008G15KT 10SM CLR 08/04 A2982 RMK AO2
KCQM 221515Z AUTO 23009KT 10SM CLR 08/04 A2982 RMK AO2
KCQM 221456Z AUTO 21008KT 10SM CLR 08/04 A2981 RMK AO2
KCQM 221436Z AUTO 21007KT 10SM SCT080 07/04 A2981 RMK AO2
KCQM 221415Z AUTO 22008KT 10SM CLR 07/04 A2980 RMK AO2
KCQM 221356Z AUTO 22006KT 10SM CLR 07/04 A2980 RMK AO2
KCQM 221335Z AUTO 23006KT 10SM CLR 07/04 A2979 RMK AO2
KCQM 221316Z AUTO 24008KT 10SM CLR 07/04 A2978 RMK AO2
KCQM 221255Z AUTO 23006KT 10SM CLR 07/04 A2977 RMK AO2
KCQM 221235Z AUTO 23007KT 10SM SCT035 07/05 A2976 RMK AO2
KCQM 221216Z AUTO 23005KT 10SM SCT035 07/05 A2975 RMK AO2
KCQM 221155Z AUTO 23007KT 201V261 10SM SCT037 07/05 A2974 RMK AO2
KCQM 221136Z AUTO 22007KT 10SM CLR 07/06 A2974 RMK AO2
KCQM 221116Z AUTO 22007KT 10SM SCT037 07/06 A2975 RMK AO2
KCQM 221055Z AUTO 22008KT 10SM CLR 07/06 A2974 RMK AO2
KCQM 221036Z AUTO 21008KT 10SM CLR 07/06 A2973 RMK AO2
KCQM 221016Z AUTO 22008KT 10SM CLR 08/06 A2972 RMK AO2
KCQM 220955Z AUTO 22007KT 10SM CLR 08/06 A2972 RMK AO2
KCQM 220936Z AUTO 22008KT 10SM CLR 08/06 A2971 RMK AO2
KCQM 220915Z AUTO 22006KT 10SM CLR 08/07 A2971 RMK AO2
KCQM 220855Z AUTO 22007KT 10SM CLR 08/07 A2971 RMK AO2
KCQM 220836Z AUTO 22006KT 10SM CLR 08/07 A2971 RMK AO2
KCQM 220815Z AUTO 22007KT 10SM CLR 08/07 A2971 RMK AO2
KCQM 220756Z AUTO 22006KT 10SM CLR 08/07 A2971 RMK AO2
KCQM 220736Z AUTO 21004KT 10SM CLR 08/07 A2971 RMK AO2
KCQM 220715Z AUTO 23005KT 10SM CLR 09/07 A2971 RMK AO2
KCQM 220656Z AUTO 21005KT 10SM CLR 09/08 A2971 RMK AO2
KCQM 220635Z AUTO 22005KT 10SM CLR 09/08 A2971 RMK AO2
KCQM 220616Z AUTO 23007KT 10SM SCT017 10/08 A2970 RMK AO2
KCQM 220556Z AUTO 23008KT 10SM SCT019 SCT046 10/08 A2969 RMK AO2
KCQM 220535Z AUTO 23008G14KT 10SM SCT019 OVC045 11/09 A2969 RMK AO2
KCQM 220516Z AUTO 23006KT 10SM SCT017 BKN036 OVC043 11/09 A2968 RMK AO2
KCQM 220456Z AUTO 24005KT 10SM SCT017 OVC034 12/10 A2968 RMK AO2
KCQM 220435Z AUTO 24008KT 10SM OVC030 12/10 A2967 RMK AO2
KCQM 220416Z AUTO 24009KT 7SM DZ OVC028 12/11 A2966 RMK AO2
KCQM 220356Z AUTO 25007KT 10SM -RA SCT008 SCT014 OVC026 12/11 A2965 RMK AO2
KCQM 220335Z AUTO 26011G20KT 10SM -DZ OVC012 14/13 A2963 RMK AO2 LTG DSNT S P0001
KCQM 220316Z AUTO 24010KT 10SM BKN010 BKN015 OVC022 16/15 A2962 RMK AO2
KCQM 220256Z AUTO 16006KT 10SM -RA SCT013 BKN017 OVC090 17/16 A2961 RMK AO2 LTG DSNT NE
KCQM 220235Z AUTO 15010G15KT 10SM -DZ SCT015 BKN024 OVC090 17/16 A2961 RMK AO2 LTG DSNT N
KCQM 220216Z AUTO 17007KT 10SM BKN016 BKN024 OVC030 17/16 A2962 RMK AO2 LTG DSNT N
KCQM 220155Z AUTO 17007KT 10SM -RA BKN016 OVC023 17/16 A2962 RMK AO2 LTG DSNT N
KCQM 220136Z AUTO 16009G14KT 10SM -RA OVC014 17/16 A2961 RMK AO2 LTG DSNT S AND NW
KCQM 220116Z AUTO 16010G16KT 10SM OVC012 17/16 A2962 RMK AO2 LTG DSNT W
KCQM 220055Z AUTO 17008G15KT 10SM OVC012 17/16 A2962 RMK AO2 LTG DSNT SW AND W
KCQM 220036Z AUTO 16010G18KT 10SM OVC010 17/16 A2962 RMK AO2
KCQM 220015Z AUTO 16008G14KT 7SM -RA OVC010 16/16 A2962 RMK AO2
KCQM 212356Z AUTO 16007KT 3SM -DZ OVC010 16/15 A2962 RMK AO2
KCQM 212335Z AUTO 16008G15KT 2 1/2SM DZ OVC010 16/15 A2962 RMK AO2
KCQM 212316Z AUTO 17009KT 2 1/2SM BR OVC008 16/15 A2961 RMK AO2
KCQM 212256Z AUTO 17009G15KT 7SM OVC008 16/15 A2960 RMK AO2
KCQM 212235Z AUTO 16008KT 5SM BR OVC008 16/15 A2960 RMK AO2
KCQM 212216Z AUTO 16009G15KT 4SM BR OVC008 16/14 A2960 RMK AO2 LTG DSNT NW
KCQM 212156Z AUTO 16008G15KT 4SM -DZ OVC008 16/14 A2960 RMK AO2
KCQM 212135Z AUTO 15006KT 2 1/2SM RA OVC008 16/14 A2960 RMK AO2
KCQM 212116Z AUTO 16010G15KT 3SM BR OVC008 16/14 A2960 RMK AO2
KCQM 212055Z AUTO 16006KT 4SM BR OVC008 16/14 A2959 RMK AO2
KCQM 212036Z AUTO 17012G18KT 5SM BR BKN008 OVC012 16/14 A2960 RMK AO2
KCQM 212016Z AUTO 16007G14KT 4SM BR OVC010 16/14 A2959 RMK AO2
KCQM 211955Z AUTO 16011G17KT 7SM OVC010 16/14 A2959 RMK AO2
KCQM 211936Z AUTO 17009G20KT 10SM OVC012 16/14 A2960 RMK AO2
KCQM 211916Z AUTO 17011G18KT 10SM OVC014 16/14 A2960 RMK AO2
KCQM 211855Z AUTO 18017G21KT 10SM OVC014 16/13 A2960 RMK AO2
KCQM 211836Z AUTO 18010G19KT 10SM BKN016 OVC048 16/13 A2960 RMK AO2
KCQM 211816Z AUTO 17012G18KT 10SM BKN016 OVC048 16/13 A2960 RMK AO2
KCQM 211755Z AUTO 18012G18KT 10SM BKN016 OVC021 16/13 A2961 RMK AO2
KCQM 211736Z AUTO 17014G22KT 10SM OVC019 16/13 A2961 RMK AO2
KCQM 211716Z AUTO 16010G18KT 141V201 10SM BKN020 BKN047 OVC065 16/13 A2962 RMK AO2
KCQM 211656Z AUTO 15011G21KT 7SM -DZ SCT020 BKN038 OVC050 15/13 A2962 RMK AO2
KCQM 211636Z AUTO 16015G23KT 10SM SCT037 BKN044 BKN095 16/13 A2963 RMK AO2
KCQM 211615Z AUTO 16011G18KT 10SM SCT033 BKN095 16/13 A2963 RMK AO2 LTG DSNT S
KCQM 211556Z AUTO 17008G17KT 10SM SCT023 BKN031 BKN095 16/12 A2964 RMK AO2
KCQM 211535Z AUTO 17012G22KT 10SM OVC025 16/12 A2964 RMK AO2
KCQM 211516Z AUTO 16011G19KT 111V181 10SM OVC025 16/12 A2964 RMK AO2
KCQM 211456Z AUTO 16012G17KT 10SM BKN025 OVC031 16/12 A2964 RMK AO2
KCQM 211435Z AUTO 17008G15KT 10SM OVC027 16/12 A2964 RMK AO2
KCQM 211416Z AUTO 16009G15KT 10SM OVC025 16/12 A2964 RMK AO2
KCQM 211355Z AUTO 15011G16KT 10SM OVC025 16/12 A2963 RMK AO2
KCQM 211336Z AUTO 16010G21KT 10SM OVC027 16/12 A2963 RMK AO2
KCQM 211316Z AUTO 15012G17KT 10SM OVC027 16/11 A2963 RMK AO2 LTG DSNT S
KCQM 211255Z AUTO 16008G15KT 10SM OVC027 16/11 A2963 RMK AO2